createdAt,value
2019-05-23T00:04:54.693Z,78.20
2019-05-23T00:14:55.349Z,78.38
2019-05-23T00:24:58.774Z,77.34
2019-05-23T00:35:00.016Z,78.70
2019-05-23T00:45:04.871Z,80.02
2019-05-23T00:55:06.808Z,78.27
2019-05-23T01:05:08.670Z,77.86
2019-05-23T01:15:10.255Z,78.04
2019-05-23T01:25:11.081Z,78.21
2019-05-23T01:35:12.613Z,77.67
2019-05-23T01:45:13.520Z,78.81
2019-05-23T01:55:14.299Z,78.68
2019-05-23T02:05:16.997Z,78.36
2019-05-23T02:15:21.812Z,78.98
2019-05-23T02:25:27.536Z,79.12
2019-05-23T02:35:29.402Z,79.31
2019-05-23T02:45:30.780Z,79.67
2019-05-23T02:55:34.633Z,79.30
2019-05-23T03:05:36.172Z,78.93
2019-05-23T03:15:37.821Z,78.64
2019-05-23T03:25:45.177Z,79.10
2019-05-23T03:35:46.295Z,79.27
2019-05-23T03:45:47.080Z,82.51
2019-05-23T03:55:47.890Z,79.97
2019-05-23T04:05:48.733Z,79.02
2019-05-23T04:15:49.535Z,79.15
2019-05-23T04:25:51.334Z,77.54
2019-05-23T04:35:53.000Z,79.76
2019-05-23T04:45:53.653Z,75.73
2019-05-23T04:55:54.322Z,74.75
2019-05-23T05:05:55.223Z,71.39
2019-05-23T05:15:55.903Z,71.32
2019-05-23T05:25:56.593Z,67.38
2019-05-23T05:35:57.274Z,65.58
2019-05-23T05:45:59.065Z,66.08
2019-05-23T05:55:59.881Z,68.87
2019-05-23T06:06:00.750Z,63.28
2019-05-23T06:16:01.517Z,66.56
2019-05-23T06:26:02.187Z,68.34
2019-05-23T06:36:02.998Z,63.14
2019-05-23T06:46:04.177Z,65.20
2019-05-23T06:56:05.851Z,64.36
2019-05-23T07:06:07.291Z,61.66
2019-05-23T07:16:08.189Z,61.66
2019-05-23T07:26:09.123Z,67.40
2019-05-23T07:36:09.811Z,63.66
2019-05-23T07:46:10.496Z,63.97
2019-05-23T07:56:11.245Z,69.65
2019-05-23T08:06:11.936Z,71.18
2019-05-23T08:16:12.562Z,67.89
2019-05-23T08:26:13.299Z,67.81
2019-05-23T08:36:14.055Z,65.16
2019-05-23T08:46:14.714Z,61.92
2019-05-23T08:56:18.804Z,58.23
2019-05-23T09:06:18.048Z,60.51
2019-05-23T09:16:18.727Z,58.53
2019-05-23T09:26:19.664Z,54.64
2019-05-23T09:36:20.488Z,56.48
2019-05-23T09:46:21.453Z,50.58
2019-05-23T09:56:22.124Z,53.13
2019-05-23T10:06:22.833Z,50.28
2019-05-23T10:16:23.493Z,47.37
2019-05-23T10:26:24.172Z,54.86
2019-05-23T10:36:24.871Z,46.25
2019-05-23T10:46:25.636Z,46.95
2019-05-23T10:56:26.305Z,47.49
2019-05-23T11:06:27.059Z,40.36
2019-05-23T11:16:27.766Z,40.80
2019-05-23T11:26:28.463Z,42.52
2019-05-23T11:36:35.327Z,41.07
2019-05-23T11:46:31.947Z,41.33
2019-05-23T11:56:32.579Z,41.88
2019-05-23T12:06:33.270Z,38.13
2019-05-23T12:16:33.998Z,37.43
2019-05-23T12:26:34.660Z,37.99
2019-05-23T12:36:35.327Z,39.33
2019-05-23T12:46:36.014Z,40.60
2019-05-23T12:56:36.750Z,38.82
2019-05-23T13:06:37.823Z,35.41
2019-05-23T13:16:38.499Z,38.26
2019-05-23T13:26:39.239Z,39.58
2019-05-23T13:36:41.037Z,38.42
2019-05-23T13:46:41.688Z,38.12
2019-05-23T13:56:47.207Z,35.22
2019-05-23T14:06:45.035Z,35.71
2019-05-23T14:16:45.689Z,37.03
2019-05-23T14:26:47.554Z,40.97
2019-05-23T14:36:48.296Z,40.67
2019-05-23T14:46:48.974Z,39.55
2019-05-23T14:56:49.770Z,40.59
2019-05-23T15:06:50.533Z,38.94
2019-05-23T15:16:51.200Z,35.10
2019-05-23T15:26:51.884Z,35.21
2019-05-23T15:36:52.536Z,40.99
2019-05-23T15:46:53.232Z,39.77
2019-05-23T15:56:54.015Z,45.06
2019-05-23T16:06:56.314Z,36.06
2019-05-23T16:16:57.365Z,36.78
2019-05-23T16:26:58.200Z,33.77
2019-05-23T16:36:58.969Z,33.85
2019-05-23T16:46:59.749Z,34.87
2019-05-23T16:57:01.564Z,35.72
2019-05-23T17:07:02.216Z,41.29
2019-05-23T17:17:05.643Z,38.96
2019-05-23T17:27:05.457Z,40.22
2019-05-23T17:37:06.341Z,41.35
2019-05-23T17:47:07.003Z,43.04
2019-05-23T17:57:07.740Z,43.66
2019-05-23T18:07:08.550Z,43.21
2019-05-23T18:17:10.198Z,46.60
2019-05-23T18:27:10.923Z,50.18
2019-05-23T18:37:11.715Z,51.99
2019-05-23T18:47:12.374Z,53.97
2019-05-23T18:57:13.047Z,56.94
2019-05-23T19:07:13.798Z,56.31
2019-05-23T19:17:15.647Z,58.63
2019-05-23T19:27:16.317Z,60.25
2019-05-23T19:37:18.209Z,59.45
2019-05-23T19:47:20.951Z,59.80
2019-05-23T19:57:21.772Z,59.95
2019-05-23T20:07:22.889Z,59.15
2019-05-23T20:17:23.643Z,58.57
2019-05-23T20:27:24.418Z,58.20
2019-05-23T20:37:25.252Z,56.66
2019-05-23T20:47:25.906Z,56.23
2019-05-23T20:57:26.804Z,66.12
2019-05-23T21:07:28.742Z,62.84
2019-05-23T21:17:29.524Z,59.97
2019-05-23T21:27:30.253Z,61.14
2019-05-23T21:37:30.995Z,61.01
2019-05-23T21:47:31.760Z,64.11
2019-05-23T21:57:32.437Z,64.38
2019-05-23T22:07:33.615Z,68.32
2019-05-23T22:17:34.313Z,69.75
2019-05-23T22:27:36.923Z,70.70
2019-05-23T22:37:37.592Z,71.66
2019-05-23T22:47:38.283Z,70.60
2019-05-23T22:57:38.896Z,69.46
2019-05-23T23:07:39.664Z,70.74
2019-05-23T23:17:40.541Z,72.07
2019-05-23T23:27:41.216Z,73.34
2019-05-23T23:37:42.115Z,75.51
2019-05-23T23:47:42.902Z,75.66
2019-05-23T23:57:43.617Z,76.06
